sensor_id;sensor_type;location;lat;lon;timestamp;temperature;humidity
39957;DHT22;48483;44.640;7.494;2022-11-15T00:00:10;9.60;99.90
39957;DHT22;48483;44.640;7.494;2022-11-15T00:02:55;9.60;99.90
39957;DHT22;48483;44.640;7.494;2022-11-15T00:05:41;9.60;99.90
39957;DHT22;48483;44.640;7.494;2022-11-15T00:08:30;9.60;99.90
39957;DHT22;48483;44.640;7.494;2022-11-15T00:11:15;9.60;99.90
39957;DHT22;48483;44.640;7.494;2022-11-15T00:14:00;9.60;99.90
39957;DHT22;48483;44.640;7.494;2022-11-15T00:16:47;9.60;99.90
39957;DHT22;48483;44.640;7.494;2022-11-15T00:19:32;9.60;99.90
39957;DHT22;48483;44.640;7.494;2022-11-15T00:22:18;9.60;99.90
39957;DHT22;48483;44.640;7.494;2022-11-15T00:25:05;9.60;99.90
39957;DHT22;48483;44.640;7.494;2022-11-15T00:27:54;9.60;99.90
39957;DHT22;48483;44.640;7.494;2022-11-15T00:30:39;9.60;99.90
39957;DHT22;48483;44.640;7.494;2022-11-15T00:33:25;9.70;99.90
39957;DHT22;48483;44.640;7.494;2022-11-15T00:36:10;9.60;99.90
39957;DHT22;48483;44.640;7.494;2022-11-15T00:38:56;9.60;99.90
39957;DHT22;48483;44.640;7.494;2022-11-15T00:41:42;9.60;99.90
39957;DHT22;48483;44.640;7.494;2022-11-15T00:44:27;9.70;99.90
39957;DHT22;48483;44.640;7.494;2022-11-15T00:47:13;9.70;99.90
39957;DHT22;48483;44.640;7.494;2022-11-15T00:49:58;9.70;99.90
39957;DHT22;48483;44.640;7.494;2022-11-15T00:52:44;9.70;99.90
39957;DHT22;48483;44.640;7.494;2022-11-15T00:55:29;9.70;99.90
39957;DHT22;48483;44.640;7.494;2022-11-15T00:58:16;9.70;99.90
39957;DHT22;48483;44.640;7.494;2022-11-15T01:01:08;9.70;99.90
39957;DHT22;48483;44.640;7.494;2022-11-15T01:03:53;9.70;99.90
39957;DHT22;48483;44.640;7.494;2022-11-15T01:06:38;9.70;99.90
39957;DHT22;48483;44.640;7.494;2022-11-15T01:09:24;9.70;99.90
39957;DHT22;48483;44.640;7.494;2022-11-15T01:12:09;9.70;99.90
39957;DHT22;48483;44.640;7.494;2022-11-15T01:14:55;9.70;99.90
39957;DHT22;48483;44.640;7.494;2022-11-15T01:17:59;9.70;99.90
39957;DHT22;48483;44.640;7.494;2022-11-15T01:20:44;9.70;99.90
39957;DHT22;48483;44.640;7.494;2022-11-15T01:23:29;9.70;99.90
39957;DHT22;48483;44.640;7.494;2022-11-15T01:26:15;9.70;99.90
39957;DHT22;48483;44.640;7.494;2022-11-15T01:29:01;9.70;99.90
39957;DHT22;48483;44.640;7.494;2022-11-15T01:31:47;9.70;99.90
39957;DHT22;48483;44.640;7.494;2022-11-15T01:34:33;9.70;99.90
39957;DHT22;48483;44.640;7.494;2022-11-15T01:37:18;9.70;99.90
39957;DHT22;48483;44.640;7.494;2022-11-15T01:40:04;9.70;99.90
39957;DHT22;48483;44.640;7.494;2022-11-15T01:42:50;9.70;99.90
39957;DHT22;48483;44.640;7.494;2022-11-15T01:45:35;9.60;99.90
39957;DHT22;48483;44.640;7.494;2022-11-15T01:48:23;9.70;99.90
39957;DHT22;48483;44.640;7.494;2022-11-15T01:51:12;9.70;99.90
39957;DHT22;48483;44.640;7.494;2022-11-15T01:54:02;9.60;99.90
39957;DHT22;48483;44.640;7.494;2022-11-15T01:56:53;9.60;99.90
39957;DHT22;48483;44.640;7.494;2022-11-15T01:59:42;9.60;99.90
39957;DHT22;48483;44.640;7.494;2022-11-15T02:02:28;9.60;99.90
39957;DHT22;48483;44.640;7.494;2022-11-15T02:05:15;9.60;99.90
39957;DHT22;48483;44.640;7.494;2022-11-15T02:08:00;9.60;99.90
39957;DHT22;48483;44.640;7.494;2022-11-15T02:10:46;9.60;99.90
39957;DHT22;48483;44.640;7.494;2022-11-15T02:13:32;9.60;99.90
39957;DHT22;48483;44.640;7.494;2022-11-15T02:16:26;9.60;99.90
39957;DHT22;48483;44.640;7.494;2022-11-15T02:19:23;9.60;99.90
39957;DHT22;48483;44.640;7.494;2022-11-15T02:22:25;9.60;99.90
39957;DHT22;48483;44.640;7.494;2022-11-15T02:25:32;9.60;99.90
39957;DHT22;48483;44.640;7.494;2022-11-15T02:28:38;9.60;99.90
39957;DHT22;48483;44.640;7.494;2022-11-15T02:31:29;9.50;99.90
39957;DHT22;48483;44.640;7.494;2022-11-15T02:34:24;9.50;99.90
39957;DHT22;48483;44.640;7.494;2022-11-15T02:37:15;9.50;99.90
39957;DHT22;48483;44.640;7.494;2022-11-15T02:40:09;9.50;99.90
39957;DHT22;48483;44.640;7.494;2022-11-15T02:43:01;9.50;99.90
39957;DHT22;48483;44.640;7.494;2022-11-15T02:46:33;9.50;99.90
39957;DHT22;48483;44.640;7.494;2022-11-15T02:49:37;9.40;99.90
39957;DHT22;48483;44.640;7.494;2022-11-15T02:52:24;9.50;99.90
39957;DHT22;48483;44.640;7.494;2022-11-15T02:55:27;9.50;99.90
39957;DHT22;48483;44.640;7.494;2022-11-15T02:58:27;9.50;99.90
39957;DHT22;48483;44.640;7.494;2022-11-15T03:01:26;9.50;99.90
39957;DHT22;48483;44.640;7.494;2022-11-15T03:04:24;9.50;99.90
39957;DHT22;48483;44.640;7.494;2022-11-15T03:07:17;9.50;99.90
39957;DHT22;48483;44.640;7.494;2022-11-15T03:10:05;9.50;99.90
39957;DHT22;48483;44.640;7.494;2022-11-15T03:12:56;9.50;99.90
39957;DHT22;48483;44.640;7.494;2022-11-15T03:15:46;9.50;99.90
39957;DHT22;48483;44.640;7.494;2022-11-15T03:18:38;9.50;99.90
39957;DHT22;48483;44.640;7.494;2022-11-15T03:21:28;9.50;99.90
39957;DHT22;48483;44.640;7.494;2022-11-15T03:24:16;9.50;99.90
39957;DHT22;48483;44.640;7.494;2022-11-15T03:27:03;9.50;99.90
39957;DHT22;48483;44.640;7.494;2022-11-15T03:29:52;9.50;99.90
39957;DHT22;48483;44.640;7.494;2022-11-15T03:32:43;9.50;99.90
39957;DHT22;48483;44.640;7.494;2022-11-15T03:35:33;9.60;99.90
39957;DHT22;48483;44.640;7.494;2022-11-15T03:38:23;9.50;99.90
39957;DHT22;48483;44.640;7.494;2022-11-15T03:41:16;9.60;99.90
39957;DHT22;48483;44.640;7.494;2022-11-15T03:44:09;9.60;99.90
39957;DHT22;48483;44.640;7.494;2022-11-15T03:47:00;9.50;99.90
39957;DHT22;48483;44.640;7.494;2022-11-15T03:49:51;9.60;99.90
39957;DHT22;48483;44.640;7.494;2022-11-15T03:52:38;9.60;99.90
39957;DHT22;48483;44.640;7.494;2022-11-15T03:55:26;9.60;99.90
39957;DHT22;48483;44.640;7.494;2022-11-15T03:58:11;9.50;99.90
39957;DHT22;48483;44.640;7.494;2022-11-15T04:00:56;9.60;99.90
39957;DHT22;48483;44.640;7.494;2022-11-15T04:03:42;9.60;99.90
39957;DHT22;48483;44.640;7.494;2022-11-15T04:06:27;9.60;99.90
39957;DHT22;48483;44.640;7.494;2022-11-15T04:09:12;9.60;99.90
39957;DHT22;48483;44.640;7.494;2022-11-15T04:11:59;9.60;99.90
39957;DHT22;48483;44.640;7.494;2022-11-15T04:14:44;9.50;99.90
39957;DHT22;48483;44.640;7.494;2022-11-15T04:17:51;9.60;99.90
39957;DHT22;48483;44.640;7.494;2022-11-15T04:20:36;9.50;99.90
39957;DHT22;48483;44.640;7.494;2022-11-15T04:23:40;9.50;99.90
39957;DHT22;48483;44.640;7.494;2022-11-15T04:26:44;9.50;99.90
39957;DHT22;48483;44.640;7.494;2022-11-15T04:29:30;9.60;99.90
39957;DHT22;48483;44.640;7.494;2022-11-15T04:32:21;9.50;99.90
39957;DHT22;48483;44.640;7.494;2022-11-15T04:35:07;9.50;99.90
39957;DHT22;48483;44.640;7.494;2022-11-15T04:37:53;9.60;99.90
39957;DHT22;48483;44.640;7.494;2022-11-15T04:40:38;9.60;99.90
39957;DHT22;48483;44.640;7.494;2022-11-15T04:43:24;9.60;99.90
39957;DHT22;48483;44.640;7.494;2022-11-15T04:46:10;9.60;99.90
39957;DHT22;48483;44.640;7.494;2022-11-15T04:48:56;9.50;99.90
39957;DHT22;48483;44.640;7.494;2022-11-15T04:51:41;9.50;99.90
39957;DHT22;48483;44.640;7.494;2022-11-15T04:54:26;9.50;99.90
39957;DHT22;48483;44.640;7.494;2022-11-15T04:57:11;9.50;99.90
39957;DHT22;48483;44.640;7.494;2022-11-15T04:59:56;9.50;99.90
39957;DHT22;48483;44.640;7.494;2022-11-15T05:02:43;9.50;99.90
39957;DHT22;48483;44.640;7.494;2022-11-15T05:05:47;9.50;99.90
39957;DHT22;48483;44.640;7.494;2022-11-15T05:08:32;9.50;99.90
39957;DHT22;48483;44.640;7.494;2022-11-15T05:11:18;9.50;99.90
39957;DHT22;48483;44.640;7.494;2022-11-15T05:14:03;9.50;99.90
39957;DHT22;48483;44.640;7.494;2022-11-15T05:16:49;9.50;99.90
39957;DHT22;48483;44.640;7.494;2022-11-15T05:19:35;9.50;99.90
39957;DHT22;48483;44.640;7.494;2022-11-15T05:22:20;9.50;99.90
39957;DHT22;48483;44.640;7.494;2022-11-15T05:25:06;9.50;99.90
39957;DHT22;48483;44.640;7.494;2022-11-15T05:27:52;9.50;99.90
39957;DHT22;48483;44.640;7.494;2022-11-15T05:30:37;9.50;99.90
39957;DHT22;48483;44.640;7.494;2022-11-15T05:33:22;9.50;99.90
39957;DHT22;48483;44.640;7.494;2022-11-15T05:36:15;9.50;99.90
39957;DHT22;48483;44.640;7.494;2022-11-15T05:39:04;9.50;99.90
39957;DHT22;48483;44.640;7.494;2022-11-15T05:41:52;9.50;99.90
39957;DHT22;48483;44.640;7.494;2022-11-15T05:44:40;9.50;99.90
39957;DHT22;48483;44.640;7.494;2022-11-15T05:47:28;9.50;99.90
39957;DHT22;48483;44.640;7.494;2022-11-15T05:50:14;9.50;99.90
39957;DHT22;48483;44.640;7.494;2022-11-15T05:53:01;9.50;99.90
39957;DHT22;48483;44.640;7.494;2022-11-15T05:55:47;9.50;99.90
39957;DHT22;48483;44.640;7.494;2022-11-15T05:58:33;9.50;99.90
39957;DHT22;48483;44.640;7.494;2022-11-15T06:01:18;9.50;99.90
39957;DHT22;48483;44.640;7.494;2022-11-15T06:04:04;9.50;99.90
39957;DHT22;48483;44.640;7.494;2022-11-15T06:06:49;9.50;99.90
39957;DHT22;48483;44.640;7.494;2022-11-15T06:09:36;9.50;99.90
39957;DHT22;48483;44.640;7.494;2022-11-15T06:12:21;9.50;99.90
39957;DHT22;48483;44.640;7.494;2022-11-15T06:15:07;9.50;99.90
39957;DHT22;48483;44.640;7.494;2022-11-15T06:17:53;9.50;99.90
39957;DHT22;48483;44.640;7.494;2022-11-15T06:20:42;9.40;99.90
39957;DHT22;48483;44.640;7.494;2022-11-15T06:23:27;9.50;99.90
39957;DHT22;48483;44.640;7.494;2022-11-15T06:26:14;9.50;99.90
39957;DHT22;48483;44.640;7.494;2022-11-15T06:28:59;9.50;99.90
39957;DHT22;48483;44.640;7.494;2022-11-15T06:31:44;9.50;99.90
39957;DHT22;48483;44.640;7.494;2022-11-15T06:34:29;9.50;99.90
39957;DHT22;48483;44.640;7.494;2022-11-15T06:37:15;9.40;99.90
39957;DHT22;48483;44.640;7.494;2022-11-15T06:40:00;9.50;99.90
39957;DHT22;48483;44.640;7.494;2022-11-15T06:42:47;9.40;99.90
39957;DHT22;48483;44.640;7.494;2022-11-15T06:45:32;9.50;99.90
39957;DHT22;48483;44.640;7.494;2022-11-15T06:48:17;9.50;99.90
39957;DHT22;48483;44.640;7.494;2022-11-15T06:51:04;9.40;99.90
39957;DHT22;48483;44.640;7.494;2022-11-15T06:53:49;9.50;99.90
39957;DHT22;48483;44.640;7.494;2022-11-15T06:56:34;9.50;99.90
39957;DHT22;48483;44.640;7.494;2022-11-15T06:59:21;9.50;99.90
39957;DHT22;48483;44.640;7.494;2022-11-15T07:02:10;9.50;99.90
39957;DHT22;48483;44.640;7.494;2022-11-15T07:04:56;9.40;99.90
39957;DHT22;48483;44.640;7.494;2022-11-15T07:07:41;9.50;99.90
39957;DHT22;48483;44.640;7.494;2022-11-15T07:10:27;9.40;99.90
39957;DHT22;48483;44.640;7.494;2022-11-15T07:13:12;9.50;99.90
39957;DHT22;48483;44.640;7.494;2022-11-15T07:16:01;9.50;99.90
39957;DHT22;48483;44.640;7.494;2022-11-15T07:18:47;9.40;99.90
39957;DHT22;48483;44.640;7.494;2022-11-15T07:21:33;9.40;99.90
39957;DHT22;48483;44.640;7.494;2022-11-15T07:24:18;9.40;99.90
39957;DHT22;48483;44.640;7.494;2022-11-15T07:27:03;9.40;99.90
39957;DHT22;48483;44.640;7.494;2022-11-15T07:29:48;9.50;99.90
39957;DHT22;48483;44.640;7.494;2022-11-15T07:32:35;9.40;99.90
39957;DHT22;48483;44.640;7.494;2022-11-15T07:35:21;9.50;99.90
39957;DHT22;48483;44.640;7.494;2022-11-15T07:38:06;9.50;99.90
39957;DHT22;48483;44.640;7.494;2022-11-15T07:40:56;9.50;99.90
39957;DHT22;48483;44.640;7.494;2022-11-15T07:43:41;9.50;99.90
39957;DHT22;48483;44.640;7.494;2022-11-15T07:46:26;9.50;99.90
39957;DHT22;48483;44.640;7.494;2022-11-15T07:49:13;9.50;99.90
39957;DHT22;48483;44.640;7.494;2022-11-15T07:51:58;9.60;99.90
39957;DHT22;48483;44.640;7.494;2022-11-15T07:54:44;9.50;99.90
39957;DHT22;48483;44.640;7.494;2022-11-15T07:57:29;9.60;99.90
39957;DHT22;48483;44.640;7.494;2022-11-15T08:00:15;9.60;99.90
39957;DHT22;48483;44.640;7.494;2022-11-15T08:03:02;9.60;99.90
39957;DHT22;48483;44.640;7.494;2022-11-15T08:05:51;9.60;99.90
39957;DHT22;48483;44.640;7.494;2022-11-15T08:08:37;9.60;99.90
39957;DHT22;48483;44.640;7.494;2022-11-15T08:11:22;9.60;99.90
39957;DHT22;48483;44.640;7.494;2022-11-15T08:14:07;9.60;99.90
39957;DHT22;48483;44.640;7.494;2022-11-15T08:16:53;9.60;99.90
39957;DHT22;48483;44.640;7.494;2022-11-15T08:19:39;9.60;99.90
39957;DHT22;48483;44.640;7.494;2022-11-15T08:22:25;9.60;99.90
39957;DHT22;48483;44.640;7.494;2022-11-15T08:25:10;9.60;99.90
39957;DHT22;48483;44.640;7.494;2022-11-15T08:27:57;9.60;99.90
39957;DHT22;48483;44.640;7.494;2022-11-15T08:30:43;9.60;99.90
39957;DHT22;48483;44.640;7.494;2022-11-15T08:33:30;9.60;99.90
39957;DHT22;48483;44.640;7.494;2022-11-15T08:36:16;9.60;99.90
39957;DHT22;48483;44.640;7.494;2022-11-15T08:39:03;9.60;99.90
39957;DHT22;48483;44.640;7.494;2022-11-15T08:41:48;9.70;99.90
39957;DHT22;48483;44.640;7.494;2022-11-15T08:44:34;9.70;99.90
39957;DHT22;48483;44.640;7.494;2022-11-15T08:47:19;9.70;99.90
39957;DHT22;48483;44.640;7.494;2022-11-15T08:50:05;9.70;99.90
39957;DHT22;48483;44.640;7.494;2022-11-15T08:52:50;9.70;99.90
39957;DHT22;48483;44.640;7.494;2022-11-15T08:55:38;9.70;99.90
39957;DHT22;48483;44.640;7.494;2022-11-15T08:58:24;9.70;99.90
39957;DHT22;48483;44.640;7.494;2022-11-15T09:01:16;9.70;99.90
39957;DHT22;48483;44.640;7.494;2022-11-15T09:04:01;9.80;99.90
39957;DHT22;48483;44.640;7.494;2022-11-15T09:06:47;9.80;99.90
39957;DHT22;48483;44.640;7.494;2022-11-15T09:09:32;9.80;99.90
39957;DHT22;48483;44.640;7.494;2022-11-15T09:12:19;9.90;99.90
39957;DHT22;48483;44.640;7.494;2022-11-15T09:15:05;9.80;99.90
39957;DHT22;48483;44.640;7.494;2022-11-15T09:17:50;9.90;99.90
39957;DHT22;48483;44.640;7.494;2022-11-15T09:20:35;9.90;99.90
39957;DHT22;48483;44.640;7.494;2022-11-15T09:23:20;9.90;99.90
39957;DHT22;48483;44.640;7.494;2022-11-15T09:26:06;9.90;99.90
39957;DHT22;48483;44.640;7.494;2022-11-15T09:28:53;9.90;99.90
39957;DHT22;48483;44.640;7.494;2022-11-15T09:31:38;9.90;99.90
39957;DHT22;48483;44.640;7.494;2022-11-15T09:34:23;9.90;99.90
39957;DHT22;48483;44.640;7.494;2022-11-15T09:37:08;10.00;99.90
39957;DHT22;48483;44.640;7.494;2022-11-15T09:39:54;10.00;99.90
39957;DHT22;48483;44.640;7.494;2022-11-15T09:42:56;10.00;99.90
39957;DHT22;48483;44.640;7.494;2022-11-15T09:45:54;10.00;99.90
39957;DHT22;48483;44.640;7.494;2022-11-15T09:49:00;10.00;99.90
39957;DHT22;48483;44.640;7.494;2022-11-15T09:51:48;10.00;99.90
39957;DHT22;48483;44.640;7.494;2022-11-15T09:54:23;10.00;99.90
39957;DHT22;48483;44.640;7.494;2022-11-15T09:56:52;10.00;99.90
39957;DHT22;48483;44.640;7.494;2022-11-15T09:59:41;10.00;99.90
39957;DHT22;48483;44.640;7.494;2022-11-15T10:02:23;10.00;99.90
39957;DHT22;48483;44.640;7.494;2022-11-15T10:04:57;10.10;99.90
39957;DHT22;48483;44.640;7.494;2022-11-15T10:07:27;10.10;99.90
39957;DHT22;48483;44.640;7.494;2022-11-15T10:10:02;10.10;99.90
39957;DHT22;48483;44.640;7.494;2022-11-15T10:12:30;10.10;99.90
39957;DHT22;48483;44.640;7.494;2022-11-15T10:15:01;10.10;99.90
39957;DHT22;48483;44.640;7.494;2022-11-15T10:17:40;10.10;99.90
39957;DHT22;48483;44.640;7.494;2022-11-15T10:20:14;10.10;99.90
39957;DHT22;48483;44.640;7.494;2022-11-15T10:22:46;10.10;99.90
39957;DHT22;48483;44.640;7.494;2022-11-15T10:25:20;10.10;99.90
39957;DHT22;48483;44.640;7.494;2022-11-15T10:27:55;10.10;99.90
39957;DHT22;48483;44.640;7.494;2022-11-15T10:30:23;10.20;99.90
39957;DHT22;48483;44.640;7.494;2022-11-15T10:32:57;10.20;99.90
39957;DHT22;48483;44.640;7.494;2022-11-15T10:35:27;10.20;99.90
39957;DHT22;48483;44.640;7.494;2022-11-15T10:38:04;10.20;99.90
39957;DHT22;48483;44.640;7.494;2022-11-15T10:40:32;10.20;99.90
39957;DHT22;48483;44.640;7.494;2022-11-15T10:43:05;10.20;99.90
39957;DHT22;48483;44.640;7.494;2022-11-15T10:45:33;10.20;99.90
39957;DHT22;48483;44.640;7.494;2022-11-15T10:48:24;10.20;99.90
39957;DHT22;48483;44.640;7.494;2022-11-15T10:50:52;10.20;99.90
39957;DHT22;48483;44.640;7.494;2022-11-15T10:53:29;10.20;99.90
39957;DHT22;48483;44.640;7.494;2022-11-15T10:56:00;10.20;99.90
39957;DHT22;48483;44.640;7.494;2022-11-15T10:58:36;10.30;99.90
39957;DHT22;48483;44.640;7.494;2022-11-15T11:01:15;10.30;99.90
39957;DHT22;48483;44.640;7.494;2022-11-15T11:03:44;10.30;99.90
39957;DHT22;48483;44.640;7.494;2022-11-15T11:06:13;10.30;99.90
39957;DHT22;48483;44.640;7.494;2022-11-15T11:08:41;10.40;99.90
39957;DHT22;48483;44.640;7.494;2022-11-15T11:11:19;10.50;99.90
39957;DHT22;48483;44.640;7.494;2022-11-15T11:13:46;10.50;99.90
39957;DHT22;48483;44.640;7.494;2022-11-15T11:16:43;10.40;99.90
39957;DHT22;48483;44.640;7.494;2022-11-15T11:22:12;10.40;99.90
39957;DHT22;48483;44.640;7.494;2022-11-15T11:24:48;10.60;99.90
39957;DHT22;48483;44.640;7.494;2022-11-15T11:27:26;10.60;99.90
39957;DHT22;48483;44.640;7.494;2022-11-15T11:30:04;10.70;99.90
39957;DHT22;48483;44.640;7.494;2022-11-15T11:32:49;10.70;99.90
39957;DHT22;48483;44.640;7.494;2022-11-15T11:35:22;10.80;99.90
39957;DHT22;48483;44.640;7.494;2022-11-15T11:37:52;10.80;99.90
39957;DHT22;48483;44.640;7.494;2022-11-15T11:40:25;10.80;99.90
39957;DHT22;48483;44.640;7.494;2022-11-15T11:42:58;10.90;99.90
39957;DHT22;48483;44.640;7.494;2022-11-15T11:45:53;10.90;99.90
39957;DHT22;48483;44.640;7.494;2022-11-15T11:48:34;10.90;99.90
39957;DHT22;48483;44.640;7.494;2022-11-15T11:51:15;10.90;99.90
39957;DHT22;48483;44.640;7.494;2022-11-15T11:53:48;10.90;99.90
39957;DHT22;48483;44.640;7.494;2022-11-15T11:56:24;10.90;99.90
39957;DHT22;48483;44.640;7.494;2022-11-15T11:58:54;10.80;99.90
39957;DHT22;48483;44.640;7.494;2022-11-15T12:01:23;10.90;99.90
39957;DHT22;48483;44.640;7.494;2022-11-15T12:03:55;10.90;99.90
39957;DHT22;48483;44.640;7.494;2022-11-15T12:06:31;11.00;99.90
39957;DHT22;48483;44.640;7.494;2022-11-15T12:09:02;11.00;99.90
39957;DHT22;48483;44.640;7.494;2022-11-15T12:11:37;11.00;99.90
39957;DHT22;48483;44.640;7.494;2022-11-15T12:14:12;11.00;99.90
39957;DHT22;48483;44.640;7.494;2022-11-15T12:16:43;11.00;99.90
39957;DHT22;48483;44.640;7.494;2022-11-15T12:19:09;11.00;99.90
39957;DHT22;48483;44.640;7.494;2022-11-15T12:21:43;11.00;99.90
39957;DHT22;48483;44.640;7.494;2022-11-15T12:24:16;11.00;99.90
39957;DHT22;48483;44.640;7.494;2022-11-15T12:26:49;11.10;99.90
39957;DHT22;48483;44.640;7.494;2022-11-15T12:29:20;11.10;99.90
39957;DHT22;48483;44.640;7.494;2022-11-15T12:31:52;11.10;99.90
39957;DHT22;48483;44.640;7.494;2022-11-15T12:34:43;11.20;99.90
39957;DHT22;48483;44.640;7.494;2022-11-15T12:37:46;11.20;99.90
39957;DHT22;48483;44.640;7.494;2022-11-15T12:40:31;11.20;99.90
39957;DHT22;48483;44.640;7.494;2022-11-15T12:46:02;11.20;99.90
39957;DHT22;48483;44.640;7.494;2022-11-15T12:48:57;11.20;99.90
39957;DHT22;48483;44.640;7.494;2022-11-15T12:54:51;11.20;99.90
39957;DHT22;48483;44.640;7.494;2022-11-15T12:57:38;11.20;99.90
39957;DHT22;48483;44.640;7.494;2022-11-15T13:03:26;11.20;99.90
39957;DHT22;48483;44.640;7.494;2022-11-15T13:05:59;11.20;99.90
39957;DHT22;48483;44.640;7.494;2022-11-15T13:08:42;11.20;99.90
39957;DHT22;48483;44.640;7.494;2022-11-15T13:11:46;11.20;99.90
39957;DHT22;48483;44.640;7.494;2022-11-15T13:14:42;11.20;99.90
39957;DHT22;48483;44.640;7.494;2022-11-15T13:17:27;11.20;99.90
39957;DHT22;48483;44.640;7.494;2022-11-15T13:19:59;11.20;99.90
39957;DHT22;48483;44.640;7.494;2022-11-15T13:22:27;11.20;99.90
39957;DHT22;48483;44.640;7.494;2022-11-15T13:25:18;11.20;99.90
39957;DHT22;48483;44.640;7.494;2022-11-15T13:27:47;11.20;99.90
39957;DHT22;48483;44.640;7.494;2022-11-15T13:30:19;11.20;99.90
39957;DHT22;48483;44.640;7.494;2022-11-15T13:32:47;11.20;99.90
39957;DHT22;48483;44.640;7.494;2022-11-15T13:35:20;11.20;99.90
39957;DHT22;48483;44.640;7.494;2022-11-15T13:37:48;11.20;99.90
39957;DHT22;48483;44.640;7.494;2022-11-15T13:40:25;11.10;99.90
39957;DHT22;48483;44.640;7.494;2022-11-15T13:42:55;11.20;99.90
39957;DHT22;48483;44.640;7.494;2022-11-15T13:45:22;11.20;99.90
39957;DHT22;48483;44.640;7.494;2022-11-15T13:47:54;11.20;99.90
39957;DHT22;48483;44.640;7.494;2022-11-15T13:50:24;11.20;99.90
39957;DHT22;48483;44.640;7.494;2022-11-15T13:52:53;11.20;99.90
39957;DHT22;48483;44.640;7.494;2022-11-15T13:55:23;11.20;99.90
39957;DHT22;48483;44.640;7.494;2022-11-15T13:57:53;11.20;99.90
39957;DHT22;48483;44.640;7.494;2022-11-15T14:00:37;11.20;99.90
39957;DHT22;48483;44.640;7.494;2022-11-15T14:03:10;11.30;99.90
39957;DHT22;48483;44.640;7.494;2022-11-15T14:05:40;11.30;99.90
39957;DHT22;48483;44.640;7.494;2022-11-15T14:08:22;11.30;99.90
39957;DHT22;48483;44.640;7.494;2022-11-15T14:11:06;11.30;99.90
39957;DHT22;48483;44.640;7.494;2022-11-15T14:13:33;11.30;99.90
39957;DHT22;48483;44.640;7.494;2022-11-15T14:16:15;11.20;99.90
39957;DHT22;48483;44.640;7.494;2022-11-15T14:18:44;11.20;99.90
39957;DHT22;48483;44.640;7.494;2022-11-15T14:21:12;11.20;99.90
39957;DHT22;48483;44.640;7.494;2022-11-15T14:23:39;11.20;99.90
39957;DHT22;48483;44.640;7.494;2022-11-15T14:26:05;11.20;99.90
39957;DHT22;48483;44.640;7.494;2022-11-15T14:28:33;11.20;99.90
39957;DHT22;48483;44.640;7.494;2022-11-15T14:31:04;11.30;99.90
39957;DHT22;48483;44.640;7.494;2022-11-15T14:33:36;11.30;99.90
39957;DHT22;48483;44.640;7.494;2022-11-15T14:36:05;11.30;99.90
39957;DHT22;48483;44.640;7.494;2022-11-15T14:38:32;11.20;99.90
39957;DHT22;48483;44.640;7.494;2022-11-15T14:40:59;11.30;99.90
39957;DHT22;48483;44.640;7.494;2022-11-15T14:43:26;11.30;99.90
39957;DHT22;48483;44.640;7.494;2022-11-15T14:45:52;11.30;99.90
39957;DHT22;48483;44.640;7.494;2022-11-15T14:48:19;11.30;99.90
39957;DHT22;48483;44.640;7.494;2022-11-15T14:50:48;11.30;99.90
39957;DHT22;48483;44.640;7.494;2022-11-15T14:53:16;11.30;99.90
39957;DHT22;48483;44.640;7.494;2022-11-15T14:55:43;11.30;99.90
39957;DHT22;48483;44.640;7.494;2022-11-15T14:58:10;11.30;99.90
39957;DHT22;48483;44.640;7.494;2022-11-15T15:00:38;11.30;99.90
39957;DHT22;48483;44.640;7.494;2022-11-15T15:03:06;11.30;99.90
39957;DHT22;48483;44.640;7.494;2022-11-15T15:05:34;11.30;99.90
39957;DHT22;48483;44.640;7.494;2022-11-15T15:08:03;11.30;99.90
39957;DHT22;48483;44.640;7.494;2022-11-15T15:10:32;11.30;99.90
39957;DHT22;48483;44.640;7.494;2022-11-15T15:12:59;11.30;99.90
39957;DHT22;48483;44.640;7.494;2022-11-15T15:15:31;11.20;99.90
39957;DHT22;48483;44.640;7.494;2022-11-15T15:17:58;11.20;99.90
39957;DHT22;48483;44.640;7.494;2022-11-15T15:20:25;11.20;99.90
39957;DHT22;48483;44.640;7.494;2022-11-15T15:22:52;11.20;99.90
39957;DHT22;48483;44.640;7.494;2022-11-15T15:25:26;11.20;99.90
39957;DHT22;48483;44.640;7.494;2022-11-15T15:27:53;11.20;99.90
39957;DHT22;48483;44.640;7.494;2022-11-15T15:30:21;11.20;99.90
39957;DHT22;48483;44.640;7.494;2022-11-15T15:32:48;11.10;99.90
39957;DHT22;48483;44.640;7.494;2022-11-15T15:35:15;11.10;99.90
39957;DHT22;48483;44.640;7.494;2022-11-15T15:37:44;11.10;99.90
39957;DHT22;48483;44.640;7.494;2022-11-15T15:40:14;11.10;99.90
39957;DHT22;48483;44.640;7.494;2022-11-15T15:42:43;11.10;99.90
39957;DHT22;48483;44.640;7.494;2022-11-15T15:45:10;11.10;99.90
39957;DHT22;48483;44.640;7.494;2022-11-15T15:47:38;11.10;99.90
39957;DHT22;48483;44.640;7.494;2022-11-15T15:50:14;11.10;99.90
39957;DHT22;48483;44.640;7.494;2022-11-15T15:52:43;11.00;99.90
39957;DHT22;48483;44.640;7.494;2022-11-15T15:55:09;11.00;99.90
39957;DHT22;48483;44.640;7.494;2022-11-15T15:57:37;11.00;99.90
39957;DHT22;48483;44.640;7.494;2022-11-15T16:00:06;11.00;99.90
39957;DHT22;48483;44.640;7.494;2022-11-15T16:02:38;11.00;99.90
39957;DHT22;48483;44.640;7.494;2022-11-15T16:05:06;11.00;99.90
39957;DHT22;48483;44.640;7.494;2022-11-15T16:07:51;11.00;99.90
39957;DHT22;48483;44.640;7.494;2022-11-15T16:10:21;11.00;99.90
39957;DHT22;48483;44.640;7.494;2022-11-15T16:12:48;11.00;99.90
39957;DHT22;48483;44.640;7.494;2022-11-15T16:15:17;11.00;99.90
39957;DHT22;48483;44.640;7.494;2022-11-15T16:17:47;10.90;99.90
39957;DHT22;48483;44.640;7.494;2022-11-15T16:20:29;10.90;99.90
39957;DHT22;48483;44.640;7.494;2022-11-15T16:22:57;10.90;99.90
39957;DHT22;48483;44.640;7.494;2022-11-15T16:25:24;10.90;99.90
39957;DHT22;48483;44.640;7.494;2022-11-15T16:27:51;10.90;99.90
39957;DHT22;48483;44.640;7.494;2022-11-15T16:30:21;10.90;99.90
39957;DHT22;48483;44.640;7.494;2022-11-15T16:32:48;10.90;99.90
39957;DHT22;48483;44.640;7.494;2022-11-15T16:35:16;10.90;99.90
39957;DHT22;48483;44.640;7.494;2022-11-15T16:37:42;10.90;99.90
39957;DHT22;48483;44.640;7.494;2022-11-15T16:40:23;10.90;99.90
39957;DHT22;48483;44.640;7.494;2022-11-15T16:42:50;10.90;99.90
39957;DHT22;48483;44.640;7.494;2022-11-15T16:45:19;10.90;99.90
39957;DHT22;48483;44.640;7.494;2022-11-15T16:47:45;10.90;99.90
39957;DHT22;48483;44.640;7.494;2022-11-15T16:50:18;10.90;99.90
39957;DHT22;48483;44.640;7.494;2022-11-15T16:52:50;10.90;99.90
39957;DHT22;48483;44.640;7.494;2022-11-15T16:55:17;10.90;99.90
39957;DHT22;48483;44.640;7.494;2022-11-15T16:57:44;10.80;99.90
39957;DHT22;48483;44.640;7.494;2022-11-15T17:00:12;10.90;99.90
39957;DHT22;48483;44.640;7.494;2022-11-15T17:02:44;10.80;99.90
39957;DHT22;48483;44.640;7.494;2022-11-15T17:05:12;10.80;99.90
39957;DHT22;48483;44.640;7.494;2022-11-15T17:07:39;10.80;99.90
39957;DHT22;48483;44.640;7.494;2022-11-15T17:10:08;10.80;99.90
39957;DHT22;48483;44.640;7.494;2022-11-15T17:12:35;10.80;99.90
39957;DHT22;48483;44.640;7.494;2022-11-15T17:15:03;10.80;99.90
39957;DHT22;48483;44.640;7.494;2022-11-15T17:17:30;10.80;99.90
39957;DHT22;48483;44.640;7.494;2022-11-15T17:19:58;10.80;99.90